Latest Weather Observations for Darwin Airport

IDD60801

Issued at 8:05 pm CST Tuesday 30 September 2014 (issued every 30 minutes, with the page automatically refreshed every 10 minutes)

About weather observations | Map of weather stations | Latest weather observations for NT | Other Formats
Station Details ID: 014015 Name: DARWIN AIRPORT Lat: -12.42 Lon: 130.89 Height: 30.4 m
Data from the previous 72 hours. | See also: Recent months at Darwin Airport
Date/Time
CST
Temp
°C
App
Temp
°C
Dew
Point
Rel
Hum
%
Delta-T
°C
Wind Press
QNH
hPa
Press
MSL
hPa
Rain
since 9 am
mm
Dir
 
Spd
km/h
Gust
km/h
Spd
kts
Gust
kts
30/08:00pm 27.7 28.7 18.7 58 5.8 N 11 13 6 7 1011.7 - 0.0
30/07:30pm 28.5 28.6 18.4 54 6.5 NNE 15 19 8 10 1011.3 - 0.0
30/07:00pm 28.9 29.4 17.5 50 7.2 N 11 15 6 8 1010.8 - 0.0
30/06:30pm 29.3 26.8 17.1 47 7.7 NNE 26 33 14 18 1010.0 - 0.0
30/06:00pm 30.3 28.0 16.6 43 8.6 NNE 24 30 13 16 1009.6 1009.3 0.0
30/05:30pm 30.8 27.8 16.7 42 8.9 N 28 35 15 19 1009.3 - 0.0
30/05:00pm 30.9 28.2 16.6 42 9.0 NNE 26 33 14 18 1009.4 - 0.0
30/04:30pm 31.2 28.2 16.8 42 9.1 N 28 33 15 18 1009.4 - 0.0
30/04:00pm 31.2 28.4 17.2 43 8.9 N 28 35 15 19 1009.7 - 0.0
30/03:30pm 30.4 27.1 17.1 44 8.4 NNE 30 35 16 19 1010.1 - 0.0
30/03:00pm 30.7 28.2 18.1 47 8.1 NNE 28 35 15 19 1010.3 1010.0 0.0
30/02:30pm 29.7 27.3 19.1 53 6.9 N 30 37 16 20 1010.7 - 0.0
30/02:00pm 30.3 27.8 19.8 53 6.9 N 32 37 17 20 1011.1 - 0.0
30/01:30pm 29.8 28.1 19.7 54 6.6 N 28 39 15 21 1011.5 - 0.0
30/01:00pm 29.7 28.0 19.8 55 6.5 N 28 33 15 18 1011.9 - 0.0
30/12:30pm 30.9 29.7 20.0 52 7.2 N 26 33 14 18 1012.6 - 0.0
30/12:00pm 30.6 30.3 20.3 54 6.8 N 22 28 12 15 1013.2 1012.9 0.0
30/11:30am 29.4 29.2 20.5 58 5.9 N 22 32 12 17 1013.7 - 0.0
30/11:00am 30.8 31.4 20.2 53 7.0 NNE 17 28 9 15 1013.9 - 0.0
30/10:30am 29.2 29.9 19.7 56 6.2 NE 15 30 8 16 1014.3 - 0.0
30/10:00am 29.6 29.5 19.5 54 6.6 NE 19 24 10 13 1014.6 - 0.0
30/09:30am 29.3 28.5 19.3 55 6.5 NE 22 30 12 16 1014.9 - 0.0
30/09:00am 28.7 29.0 19.5 57 6.0 NE 17 26 9 14 1014.9 1014.6 0.0
30/08:30am 28.0 29.3 20.2 62 5.1 ENE 13 19 7 10 1014.8 - 0.0
30/08:00am 26.7 29.2 21.1 71 3.7 NNE 9 11 5 6 1014.5 - 0.0
30/07:30am 25.0 28.0 21.2 79 2.5 NE 7 9 4 5 1014.4 - 0.0
30/07:00am 23.0 25.7 20.7 87 1.5 E 7 7 4 4 1014.2 - 0.0
30/06:30am 22.9 25.5 20.4 86 1.6 E 7 9 4 5 1013.8 - 0.0
30/06:00am 23.4 26.2 20.5 84 1.9 E 6 7 3 4 1013.7 1013.4 0.0
30/05:30am 23.6 25.9 20.7 84 1.9 E 9 11 5 6 1013.4 - 0.0
30/05:00am 24.1 26.4 20.6 81 2.3 NE 9 11 5 6 1013.1 - 0.0
30/04:30am 24.7 26.5 20.4 77 2.8 N 11 15 6 8 1012.9 - 0.0
30/04:00am 24.3 25.8 20.6 80 2.4 N 13 19 7 10 1012.7 - 0.0
30/03:30am 23.7 25.9 20.3 81 2.2 N 9 11 5 6 1012.5 - 0.0
30/03:00am 23.9 26.5 20.4 81 2.3 NNW 7 9 4 5 1012.4 1012.1 0.0
30/02:30am 24.2 26.4 20.4 79 2.5 NNW 9 11 5 6 1012.3 - 0.0
30/02:00am 24.3 26.9 20.1 77 2.7 WNW 6 9 3 5 1012.4 - 0.0
30/01:30am 26.0 28.2 20.3 71 3.7 WNW 9 13 5 7 1012.6 - 0.0
30/01:00am 26.7 28.5 20.3 68 4.2 WNW 11 15 6 8 1012.6 - 0.0
30/12:30am 26.5 27.8 20.2 68 4.1 NNW 13 19 7 10 1012.8 - 0.0
30/12:00am 26.6 28.0 20.3 68 4.1 NNW 13 17 7 9 1013.0 1012.7 0.0
 
Date/Time
CST
Temp
°C
App
Temp
°C
Dew
Point
Rel
Hum
%
Delta-T
°C
Wind Press
QNH
hPa
Press
MSL
hPa
Rain
since 9 am
mm
Dir
 
Spd
km/h
Gust
km/h
Spd
kts
Gust
kts
29/11:30pm 26.7 27.5 19.1 63 4.9 NW 13 19 7 10 1013.1 - 0.0
29/11:00pm 25.7 26.9 20.0 71 3.7 NW 13 15 7 8 1013.1 - 0.0
29/10:30pm 26.9 28.3 19.5 64 4.8 WNW 11 13 6 7 1012.7 - 0.0
29/10:00pm 26.8 28.6 19.5 64 4.7 W 9 13 5 7 1012.6 - 0.0
29/09:30pm 27.0 28.8 19.6 64 4.8 W 9 13 5 7 1012.4 - 0.0
29/09:00pm 27.5 28.7 19.1 60 5.4 W 11 15 6 8 1012.1 1011.8 0.0
29/08:30pm 27.8 27.8 18.2 56 6.1 WSW 15 19 8 10 1011.6 - 0.0
29/08:00pm 27.8 27.5 17.3 52 6.6 W 15 17 8 9 1011.2 - 0.0
29/07:30pm 28.5 28.3 17.6 51 6.9 WNW 15 17 8 9 1010.8 - 0.0
29/07:00pm 28.6 29.0 19.0 56 6.2 NW 15 17 8 9 1010.4 - 0.0
29/06:30pm 30.1 27.9 14.5 38 9.5 NW 19 24 10 13 1010.1 - 0.0
29/06:00pm 30.8 27.9 13.0 33 10.6 N 20 28 11 15 1009.7 1009.4 0.0
29/05:30pm 31.8 28.5 11.7 29 11.8 N 20 28 11 15 1009.4 - 0.0
29/05:00pm 32.0 27.3 10.8 27 12.3 N 26 32 14 17 1009.3 - 0.0
29/04:30pm 32.4 28.0 10.4 26 12.7 N 24 30 13 16 1009.3 - 0.0
29/04:00pm 32.7 27.7 11.1 26 12.6 NNW 28 35 15 19 1009.4 - 0.0
29/03:30pm 32.8 28.8 11.8 27 12.4 NW 24 30 13 16 1009.7 - 0.0
29/03:00pm 33.1 28.0 10.5 25 13.1 NNW 28 35 15 19 1010.0 1009.7 0.0
29/02:30pm 33.3 29.6 12.6 28 12.4 N 24 33 13 18 1010.3 - 0.0
29/02:00pm 32.6 28.7 13.4 31 11.6 NNW 26 33 14 18 1010.9 - 0.0
29/01:30pm 32.6 30.6 16.5 38 10.2 N 22 32 12 17 1011.4 - 0.0
29/01:00pm 31.7 30.8 17.8 43 8.9 N 19 30 10 16 1011.9 - 0.0
29/12:30pm 31.4 30.9 19.2 48 8.0 N 20 28 11 15 1012.6 - 0.0
29/12:00pm 31.3 30.4 18.1 45 8.5 N 20 28 11 15 1013.1 1012.8 0.0
29/11:30am 30.8 29.7 17.8 45 8.3 NNW 20 26 11 14 1013.6 - 0.0
29/11:00am 30.1 29.3 17.1 45 8.2 N 17 30 9 16 1014.0 - 0.0
29/10:30am 30.5 29.2 15.8 41 9.1 NNW 17 20 9 11 1014.0 - 0.0
29/10:00am 30.1 28.3 13.3 35 10.0 N 15 22 8 12 1014.0 - 0.0
29/09:30am 29.9 27.9 11.6 32 10.6 N 13 20 7 11 1014.0 - 0.0
29/09:00am 29.5 29.9 18.1 50 7.3 N 13 19 7 10 1013.9 1013.6 0.0
29/08:30am 27.9 30.0 21.0 66 4.6 N 11 15 6 8 1013.7 - 0.0
29/08:00am 26.5 29.1 21.9 76 3.1 N 11 13 6 7 1013.5 - 0.0
29/07:30am 23.9 27.2 21.8 88 1.4 N 7 9 4 5 1013.3 - 0.0
29/07:00am 21.9 24.5 20.4 91 1.0 N 7 9 4 5 1013.0 - 0.0
29/06:30am 22.1 24.9 20.4 90 1.1 N 6 9 3 5 1012.6 - 0.0
29/06:00am 22.5 25.1 20.5 88 1.3 N 7 9 4 5 1012.2 1011.9 0.0
29/05:30am 23.1 25.5 20.8 87 1.5 N 9 11 5 6 1011.8 - 0.0
29/05:00am 23.4 25.7 20.6 84 1.8 NNE 9 11 5 6 1011.4 - 0.0
29/04:30am 24.2 26.4 20.5 80 2.4 NNE 9 13 5 7 1011.0 - 0.0
29/04:00am 23.6 25.6 20.7 84 1.9 NNE 11 13 6 7 1011.0 - 0.0
29/03:30am 23.5 25.6 20.9 85 1.7 ENE 11 13 6 7 1011.2 - 0.0
29/03:00am 23.7 26.4 21.3 86 1.6 N 9 11 5 6 1011.2 1010.9 0.0
29/02:30am 24.1 26.7 21.2 84 1.9 N 9 13 5 7 1011.5 - 0.0
29/02:00am 24.4 27.3 21.7 85 1.8 N 9 13 5 7 1011.8 - 0.0
29/01:30am 25.0 28.3 22.5 86 1.7 N 9 13 5 7 1011.8 - 0.0
29/01:00am 25.5 28.0 22.5 83 2.0 N 13 17 7 9 1012.2 - 0.0
29/12:30am 25.3 28.2 22.5 84 1.9 N 11 13 6 7 1012.2 - 0.0
29/12:00am 24.6 27.3 21.4 82 2.1 N 9 11 5 6 1012.3 1012.0 0.0
 
Date/Time
CST
Temp
°C
App
Temp
°C
Dew
Point
Rel
Hum
%
Delta-T
°C
Wind Press
QNH
hPa
Press
MSL
hPa
Rain
since 9 am
mm
Dir
 
Spd
km/h
Gust
km/h
Spd
kts
Gust
kts
28/11:30pm 24.6 26.8 20.3 77 2.8 N 9 11 5 6 1012.4 - 0.0
28/11:00pm 25.6 29.5 21.1 76 3.0 N 2 11 1 6 1012.4 - 0.0
28/10:30pm 25.9 28.9 21.2 75 3.1 N 7 11 4 6 1012.4 - 0.0
28/10:00pm 27.4 29.4 21.6 70 3.9 W 13 17 7 9 1011.6 - 0.0
28/09:30pm 27.3 28.8 19.8 63 4.9 NW 11 15 6 8 1011.2 - 0.0
28/09:00pm 27.7 29.6 19.7 61 5.2 SW 9 11 5 6 1010.6 1010.3 0.0
28/08:30pm 28.1 28.7 18.6 56 6.1 SW 13 17 7 9 1010.4 - 0.0
28/08:00pm 28.6 29.4 18.1 53 6.7 WSW 11 13 6 7 1010.3 - 0.0
28/07:30pm 29.0 29.3 17.1 48 7.5 W 11 13 6 7 1010.0 - 0.0
28/07:00pm 29.4 28.6 17.0 47 7.8 W 17 20 9 11 1009.8 - 0.0
28/06:30pm 29.9 27.9 14.0 37 9.6 W 17 19 9 10 1009.6 - 0.0
28/06:00pm 30.3 28.1 15.0 39 9.4 W 20 24 11 13 1009.6 1009.3 0.0
28/05:30pm 30.9 28.5 15.4 39 9.6 NW 22 28 12 15 1009.3 - 0.0
28/05:00pm 31.7 29.5 14.8 36 10.4 NW 20 26 11 14 1009.3 - 0.0
28/04:30pm 31.8 28.6 16.2 39 9.8 WNW 28 33 15 18 1009.3 - 0.0
28/04:00pm 32.4 30.0 15.3 35 10.6 NNW 22 28 12 15 1009.2 - 0.0
28/03:30pm 32.1 29.4 15.6 37 10.3 WNW 24 32 13 17 1009.6 - 0.0
28/03:00pm 32.2 30.0 16.9 40 9.7 NW 24 32 13 17 1010.0 1009.7 0.0
28/02:30pm 32.5 30.9 16.5 38 10.1 NNW 20 28 11 15 1010.2 - 0.0
28/02:00pm 32.6 30.3 15.6 36 10.6 NW 22 26 12 14 1010.8 - 0.0
28/01:30pm 33.0 30.8 16.0 36 10.7 WNW 22 28 12 15 1011.2 - 0.0
28/01:00pm 32.6 31.7 16.9 39 10.0 NW 17 26 9 14 1011.8 - 0.0
28/12:30pm 33.0 32.2 17.2 39 10.1 WNW 17 24 9 13 1012.6 - 0.0
28/12:00pm 33.1 33.1 17.1 38 10.2 NW 13 24 7 13 1013.2 1012.9 0.0
28/11:30am 31.9 31.7 18.5 45 8.7 WNW 17 24 9 13 1013.7 - 0.0
28/11:00am 32.0 33.3 19.3 47 8.3 WNW 11 19 6 10 1014.2 - 0.0
28/10:30am 30.5 32.1 19.9 53 7.0 W 11 17 6 9 1014.6 - 0.0
28/10:00am 30.1 31.9 20.4 56 6.4 W 11 17 6 9 1014.9 - 0.0
28/09:30am 29.2 30.9 20.1 58 6.0 WSW 11 17 6 9 1015.0 - 0.0
28/09:00am 29.0 31.3 22.0 66 4.7 W 13 17 7 9 1015.1 1014.8 0.0
28/08:30am 27.7 31.3 23.8 79 2.7 WSW 11 15 6 8 1015.1 - 0.0
28/08:00am 26.6 30.7 24.0 86 1.8 SW 9 11 5 6 1014.9 - 0.0
28/07:30am 25.9 29.9 23.7 88 1.5 WSW 9 9 5 5 1014.6 - 0.0
28/07:00am 23.3 28.0 21.9 92 0.9 CALM 0 0 0 0 1014.4 - 0.0
28/06:30am 23.0 27.6 21.8 93 0.8 CALM 0 0 0 0 1014.0 - 0.0
28/06:16am 23.0 27.6 21.8 93 0.8 CALM 0 0 0 0 1013.8 - 0.0
28/06:00am 23.1 27.9 22.2 95 0.6 CALM 0 0 0 0 1013.7 1013.4 0.0
28/05:30am 22.8 26.0 21.7 93 0.7 NE 7 7 4 4 1013.6 - 0.0
28/05:00am 22.9 27.5 21.8 93 0.7 CALM 0 0 0 0 1013.2 - 0.0
28/04:30am 23.6 28.3 21.9 90 1.1 CALM 0 0 0 0 1012.9 - 0.0
28/04:00am 23.9 28.1 22.4 91 1.0 S 4 6 2 3 1012.8 - 0.0
28/03:30am 25.2 28.7 22.8 86 1.6 SW 9 11 5 6 1012.8 - 0.0
28/03:00am 24.0 28.9 22.4 91 1.1 CALM 0 0 0 0 1012.8 1012.5 0.0
28/02:30am 24.0 28.9 22.4 91 1.1 CALM 0 0 0 0 1013.1 - 0.0
28/02:00am 24.3 29.3 22.5 90 1.2 CALM 0 6 0 3 1013.3 - 0.0
28/01:30am 24.4 29.0 22.5 89 1.3 NNE 2 6 1 3 1013.4 - 0.0
28/01:00am 24.6 29.6 22.5 88 1.4 CALM 0 0 0 0 1013.6 - 0.0
28/12:30am 25.1 30.2 22.6 86 1.7 CALM 0 0 0 0 1013.8 - 0.0
28/12:00am 25.8 29.4 23.0 84 1.9 ENE 9 9 5 5 1013.9 1013.6 0.0
 
Date/Time
CST
Temp
°C
App
Temp
°C
Dew
Point
Rel
Hum
%
Delta-T
°C
Wind Press
QNH
hPa
Press
MSL
hPa
Rain
since 9 am
mm
Dir
 
Spd
km/h
Gust
km/h
Spd
kts
Gust
kts
27/11:30pm 26.5 30.6 23.0 81 2.4 NNW 6 7 3 4 1014.0 - 0.0
27/11:00pm 27.0 30.4 23.3 80 2.5 SSW 11 15 6 8 1013.6 - 0.0
27/10:30pm 27.3 31.1 23.5 80 2.6 S 9 11 5 6 1013.6 - 0.0
27/10:00pm 27.4 29.6 23.2 78 2.9 SW 17 22 9 12 1013.2 - 0.0
27/09:30pm 27.6 30.1 23.1 76 3.1 SW 15 20 8 11 1013.0 - 0.0
27/09:00pm 27.9 30.0 23.1 75 3.3 WSW 17 22 9 12 1012.7 1012.4 0.0
27/08:30pm 28.1 30.2 22.5 71 3.8 WSW 15 19 8 10 1012.5 - 0.0

Other Formats:

Comma delimited format used in spreadsheet applications
http://www.bom.gov.au/fwo/IDD60801/IDD60801.94120.axf

JavaScript Object Notation format (JSON) in row-major order
http://www.bom.gov.au/fwo/IDD60801/IDD60801.94120.json